sensor_id;sensor_type;location;lat;lon;timestamp;pressure;altitude;pressure_sealevel;temperature;humidity
32733;BME280;11867;51.198;11.966;2023-05-16T00:00:15;100029.66;;;11.41;100.00
32733;BME280;11867;51.198;11.966;2023-05-16T00:01:16;100035.50;;;11.73;100.00
32733;BME280;11867;51.198;11.966;2023-05-16T00:02:19;100040.81;;;12.02;99.37
32733;BME280;11867;51.198;11.966;2023-05-16T00:03:21;100040.38;;;12.27;97.17
32733;BME280;11867;51.198;11.966;2023-05-16T00:04:24;100048.63;;;12.41;95.54
32733;BME280;11867;51.198;11.966;2023-05-16T00:05:26;100045.53;;;12.62;93.94
32733;BME280;11867;51.198;11.966;2023-05-16T00:06:30;100045.75;;;12.65;93.16
32733;BME280;11867;51.198;11.966;2023-05-16T00:07:33;100044.22;;;12.59;93.34
32733;BME280;11867;51.198;11.966;2023-05-16T00:08:35;100040.09;;;12.76;92.60
32733;BME280;11867;51.198;11.966;2023-05-16T00:09:37;100040.81;;;12.95;91.76
32733;BME280;11867;51.198;11.966;2023-05-16T00:10:39;100050.53;;;13.01;91.09
32733;BME280;11867;51.198;11.966;2023-05-16T00:11:41;100044.66;;;13.08;90.43
32733;BME280;11867;51.198;11.966;2023-05-16T00:12:43;100046.00;;;13.10;89.86
32733;BME280;11867;51.198;11.966;2023-05-16T00:13:45;100050.22;;;13.17;89.46
32733;BME280;11867;51.198;11.966;2023-05-16T00:14:48;100042.41;;;13.24;89.06
32733;BME280;11867;51.198;11.966;2023-05-16T00:15:50;100053.28;;;13.29;88.36
32733;BME280;11867;51.198;11.966;2023-05-16T00:16:53;100048.19;;;13.22;88.51
32733;BME280;11867;51.198;11.966;2023-05-16T00:17:55;100048.09;;;13.00;88.94
32733;BME280;11867;51.198;11.966;2023-05-16T00:18:59;100049.22;;;12.85;89.95
32733;BME280;11867;51.198;11.966;2023-05-16T00:20:01;100051.88;;;12.90;90.43
32733;BME280;11867;51.198;11.966;2023-05-16T00:21:11;100056.09;;;12.03;94.29
32733;BME280;11867;51.198;11.966;2023-05-16T00:22:14;100056.31;;;12.06;95.84
32733;BME280;11867;51.198;11.966;2023-05-16T00:23:16;100054.44;;;12.21;95.28
32733;BME280;11867;51.198;11.966;2023-05-16T00:24:18;100060.19;;;12.52;94.12
32733;BME280;11867;51.198;11.966;2023-05-16T00:25:20;100063.31;;;12.78;91.89
32733;BME280;11867;51.198;11.966;2023-05-16T00:26:22;100071.53;;;12.92;91.01
32733;BME280;11867;51.198;11.966;2023-05-16T00:27:24;100060.56;;;12.78;90.96
32733;BME280;11867;51.198;11.966;2023-05-16T00:28:26;100074.31;;;12.73;91.63
32733;BME280;11867;51.198;11.966;2023-05-16T00:29:29;100064.94;;;12.93;91.10
32733;BME280;11867;51.198;11.966;2023-05-16T00:30:31;100078.41;;;13.03;89.91
32733;BME280;11867;51.198;11.966;2023-05-16T00:31:33;100074.88;;;13.03;89.91
32733;BME280;11867;51.198;11.966;2023-05-16T00:32:35;100074.47;;;12.82;90.52
32733;BME280;11867;51.198;11.966;2023-05-16T00:33:38;100070.06;;;12.67;91.16
32733;BME280;11867;51.198;11.966;2023-05-16T00:34:39;100071.22;;;12.80;91.05
32733;BME280;11867;51.198;11.966;2023-05-16T00:35:42;100077.75;;;12.51;92.23
32733;BME280;11867;51.198;11.966;2023-05-16T00:36:43;100072.00;;;12.34;93.15
32733;BME280;11867;51.198;11.966;2023-05-16T00:37:47;100075.59;;;11.96;95.34
32733;BME280;11867;51.198;11.966;2023-05-16T00:38:48;100075.16;;;11.89;96.74
32733;BME280;11867;51.198;11.966;2023-05-16T00:39:51;100085.47;;;12.11;95.78
32733;BME280;11867;51.198;11.966;2023-05-16T00:40:52;100080.13;;;12.39;94.31
32733;BME280;11867;51.198;11.966;2023-05-16T00:41:55;100078.94;;;12.59;92.79
32733;BME280;11867;51.198;11.966;2023-05-16T00:42:58;100085.47;;;12.30;93.81
32733;BME280;11867;51.198;11.966;2023-05-16T00:44:00;100079.34;;;12.19;94.68
32733;BME280;11867;51.198;11.966;2023-05-16T00:45:02;100076.28;;;12.40;93.83
32733;BME280;11867;51.198;11.966;2023-05-16T00:46:05;100079.34;;;12.52;93.13
32733;BME280;11867;51.198;11.966;2023-05-16T00:47:06;100073.34;;;12.17;94.36
32733;BME280;11867;51.198;11.966;2023-05-16T00:48:09;100075.22;;;12.22;94.92
32733;BME280;11867;51.198;11.966;2023-05-16T00:49:12;100072.19;;;11.85;96.15
32733;BME280;11867;51.198;11.966;2023-05-16T00:50:15;100074.53;;;12.11;95.64
32733;BME280;11867;51.198;11.966;2023-05-16T00:51:17;100073.28;;;12.22;95.08
32733;BME280;11867;51.198;11.966;2023-05-16T00:52:20;100073.19;;;12.46;93.70
32733;BME280;11867;51.198;11.966;2023-05-16T00:53:24;100071.75;;;12.16;94.37
32733;BME280;11867;51.198;11.966;2023-05-16T00:54:26;100065.00;;;12.27;94.44
32733;BME280;11867;51.198;11.966;2023-05-16T00:55:29;100072.56;;;11.60;96.51
32733;BME280;11867;51.198;11.966;2023-05-16T00:56:33;100068.09;;;11.02;100.00
32733;BME280;11867;51.198;11.966;2023-05-16T00:57:35;100080.19;;;10.90;100.00
32733;BME280;11867;51.198;11.966;2023-05-16T00:58:37;100074.47;;;10.92;100.00
32733;BME280;11867;51.198;11.966;2023-05-16T00:59:39;100073.28;;;11.22;100.00
32733;BME280;11867;51.198;11.966;2023-05-16T01:00:43;100077.63;;;11.47;100.00
32733;BME280;11867;51.198;11.966;2023-05-16T01:01:50;100078.56;;;11.14;100.00
32733;BME280;11867;51.198;11.966;2023-05-16T01:02:52;100082.97;;;11.34;100.00
32733;BME280;11867;51.198;11.966;2023-05-16T01:03:55;100071.56;;;11.50;100.00
32733;BME280;11867;51.198;11.966;2023-05-16T01:04:57;100076.00;;;11.84;97.98
32733;BME280;11867;51.198;11.966;2023-05-16T01:06:00;100076.09;;;12.17;95.96
32733;BME280;11867;51.198;11.966;2023-05-16T01:07:02;100073.22;;;12.08;94.60
32733;BME280;11867;51.198;11.966;2023-05-16T01:08:04;100070.06;;;12.01;95.43
32733;BME280;11867;51.198;11.966;2023-05-16T01:09:07;100078.94;;;11.93;95.77
32733;BME280;11867;51.198;11.966;2023-05-16T01:10:10;100070.72;;;11.74;96.28
32733;BME280;11867;51.198;11.966;2023-05-16T01:11:19;100068.28;;;11.91;96.31
32733;BME280;11867;51.198;11.966;2023-05-16T01:12:36;100067.59;;;12.19;94.42
32733;BME280;11867;51.198;11.966;2023-05-16T01:13:44;100066.91;;;12.27;93.64
32733;BME280;11867;51.198;11.966;2023-05-16T01:14:55;100074.69;;;11.63;96.53
32733;BME280;11867;51.198;11.966;2023-05-16T01:16:04;100072.75;;;11.44;98.04
32733;BME280;11867;51.198;11.966;2023-05-16T01:17:16;100070.53;;;11.84;96.58
32733;BME280;11867;51.198;11.966;2023-05-16T01:18:24;100077.56;;;11.28;97.52
32733;BME280;11867;51.198;11.966;2023-05-16T01:19:46;100073.66;;;10.62;100.00
32733;BME280;11867;51.198;11.966;2023-05-16T01:20:55;100083.41;;;10.39;100.00
32733;BME280;11867;51.198;11.966;2023-05-16T01:22:02;100084.72;;;10.47;100.00
32733;BME280;11867;51.198;11.966;2023-05-16T01:23:18;100087.84;;;10.88;100.00
32733;BME280;11867;51.198;11.966;2023-05-16T01:24:32;100088.84;;;10.44;100.00
32733;BME280;11867;51.198;11.966;2023-05-16T01:25:43;100092.03;;;10.12;100.00
32733;BME280;11867;51.198;11.966;2023-05-16T01:26:49;100090.19;;;10.07;100.00
32733;BME280;11867;51.198;11.966;2023-05-16T01:27:54;100093.91;;;10.17;100.00
32733;BME280;11867;51.198;11.966;2023-05-16T01:28:56;100099.19;;;10.03;100.00
32733;BME280;11867;51.198;11.966;2023-05-16T01:29:59;100105.53;;;9.93;100.00
32733;BME280;11867;51.198;11.966;2023-05-16T01:31:01;100096.97;;;10.10;100.00
32733;BME280;11867;51.198;11.966;2023-05-16T01:32:04;100098.09;;;10.04;100.00
32733;BME280;11867;51.198;11.966;2023-05-16T01:33:06;100091.09;;;10.27;100.00
32733;BME280;11867;51.198;11.966;2023-05-16T01:34:08;100089.38;;;10.07;100.00
32733;BME280;11867;51.198;11.966;2023-05-16T01:35:12;100095.88;;;10.11;100.00
32733;BME280;11867;51.198;11.966;2023-05-16T01:36:23;100095.28;;;10.14;100.00
32733;BME280;11867;51.198;11.966;2023-05-16T01:37:29;100089.91;;;10.09;100.00
32733;BME280;11867;51.198;11.966;2023-05-16T01:38:38;100098.53;;;10.21;100.00
32733;BME280;11867;51.198;11.966;2023-05-16T01:39:51;100091.22;;;10.51;100.00
32733;BME280;11867;51.198;11.966;2023-05-16T01:41:02;100090.63;;;10.54;100.00
32733;BME280;11867;51.198;11.966;2023-05-16T01:42:08;100089.22;;;10.27;100.00
32733;BME280;11867;51.198;11.966;2023-05-16T01:43:13;100093.97;;;10.12;100.00
32733;BME280;11867;51.198;11.966;2023-05-16T01:44:22;100095.75;;;10.32;100.00
32733;BME280;11867;51.198;11.966;2023-05-16T01:45:28;100094.31;;;10.68;100.00
32733;BME280;11867;51.198;11.966;2023-05-16T01:46:36;100092.94;;;10.71;100.00
32733;BME280;11867;51.198;11.966;2023-05-16T01:47:42;100102.00;;;10.32;100.00
32733;BME280;11867;51.198;11.966;2023-05-16T01:48:52;100098.63;;;10.06;100.00
32733;BME280;11867;51.198;11.966;2023-05-16T01:49:57;100098.25;;;9.78;100.00
32733;BME280;11867;51.198;11.966;2023-05-16T01:51:02;100098.31;;;9.68;100.00
32733;BME280;11867;51.198;11.966;2023-05-16T01:52:07;100095.94;;;10.01;100.00
32733;BME280;11867;51.198;11.966;2023-05-16T01:53:13;100097.38;;;10.33;100.00
32733;BME280;11867;51.198;11.966;2023-05-16T01:54:18;100103.94;;;10.26;100.00
32733;BME280;11867;51.198;11.966;2023-05-16T01:55:22;100100.41;;;10.21;100.00
32733;BME280;11867;51.198;11.966;2023-05-16T01:56:27;100108.59;;;10.21;100.00
32733;BME280;11867;51.198;11.966;2023-05-16T01:57:31;100102.59;;;10.58;100.00
32733;BME280;11867;51.198;11.966;2023-05-16T01:58:35;100106.63;;;10.66;100.00
32733;BME280;11867;51.198;11.966;2023-05-16T01:59:38;100106.03;;;10.40;100.00
32733;BME280;11867;51.198;11.966;2023-05-16T02:00:41;100102.94;;;10.12;100.00
32733;BME280;11867;51.198;11.966;2023-05-16T02:01:43;100113.22;;;10.20;100.00
32733;BME280;11867;51.198;11.966;2023-05-16T02:02:46;100104.38;;;10.44;100.00
32733;BME280;11867;51.198;11.966;2023-05-16T02:03:48;100100.88;;;10.67;100.00
32733;BME280;11867;51.198;11.966;2023-05-16T02:04:51;100108.75;;;10.98;100.00
32733;BME280;11867;51.198;11.966;2023-05-16T02:05:52;100104.06;;;10.75;100.00
32733;BME280;11867;51.198;11.966;2023-05-16T02:06:55;100109.84;;;10.44;100.00
32733;BME280;11867;51.198;11.966;2023-05-16T02:07:58;100109.19;;;10.52;100.00
32733;BME280;11867;51.198;11.966;2023-05-16T02:09:00;100110.22;;;10.61;100.00
32733;BME280;11867;51.198;11.966;2023-05-16T02:10:02;100113.28;;;10.84;100.00
32733;BME280;11867;51.198;11.966;2023-05-16T02:11:06;100111.25;;;10.65;100.00
32733;BME280;11867;51.198;11.966;2023-05-16T02:12:08;100120.94;;;10.47;100.00
32733;BME280;11867;51.198;11.966;2023-05-16T02:13:11;100114.97;;;10.45;100.00
32733;BME280;11867;51.198;11.966;2023-05-16T02:14:13;100116.22;;;10.58;100.00
32733;BME280;11867;51.198;11.966;2023-05-16T02:15:16;100120.69;;;10.49;100.00
32733;BME280;11867;51.198;11.966;2023-05-16T02:16:17;100127.88;;;10.35;100.00
32733;BME280;11867;51.198;11.966;2023-05-16T02:17:20;100127.00;;;10.44;100.00
32733;BME280;11867;51.198;11.966;2023-05-16T02:18:22;100127.00;;;10.00;100.00
32733;BME280;11867;51.198;11.966;2023-05-16T02:19:24;100133.69;;;10.18;100.00
32733;BME280;11867;51.198;11.966;2023-05-16T02:20:26;100126.31;;;10.18;100.00
32733;BME280;11867;51.198;11.966;2023-05-16T02:21:28;100136.75;;;10.11;100.00
32733;BME280;11867;51.198;11.966;2023-05-16T02:22:31;100137.88;;;10.00;100.00
32733;BME280;11867;51.198;11.966;2023-05-16T02:23:34;100130.03;;;9.88;100.00
32733;BME280;11867;51.198;11.966;2023-05-16T02:24:35;100137.88;;;10.00;100.00
32733;BME280;11867;51.198;11.966;2023-05-16T02:25:38;100139.06;;;10.33;100.00
32733;BME280;11867;51.198;11.966;2023-05-16T02:26:39;100136.59;;;10.66;100.00
32733;BME280;11867;51.198;11.966;2023-05-16T02:27:42;100142.56;;;10.73;100.00
32733;BME280;11867;51.198;11.966;2023-05-16T02:28:44;100138.09;;;10.82;100.00
32733;BME280;11867;51.198;11.966;2023-05-16T02:29:49;100137.66;;;10.99;99.01
32733;BME280;11867;51.198;11.966;2023-05-16T02:30:57;100135.34;;;11.11;97.91
32733;BME280;11867;51.198;11.966;2023-05-16T02:32:00;100140.81;;;11.11;97.20
32733;BME280;11867;51.198;11.966;2023-05-16T02:33:01;100147.72;;;11.28;96.36
32733;BME280;11867;51.198;11.966;2023-05-16T02:34:04;100138.44;;;11.29;95.79
32733;BME280;11867;51.198;11.966;2023-05-16T02:35:06;100142.09;;;11.19;96.13
32733;BME280;11867;51.198;11.966;2023-05-16T02:36:09;100140.66;;;11.27;95.47
32733;BME280;11867;51.198;11.966;2023-05-16T02:37:11;100147.13;;;11.07;96.11
32733;BME280;11867;51.198;11.966;2023-05-16T02:38:13;100155.94;;;10.69;98.11
32733;BME280;11867;51.198;11.966;2023-05-16T02:39:17;100148.28;;;10.37;100.00
32733;BME280;11867;51.198;11.966;2023-05-16T02:40:20;100156.09;;;10.49;100.00
32733;BME280;11867;51.198;11.966;2023-05-16T02:41:21;100148.19;;;10.82;100.00
32733;BME280;11867;51.198;11.966;2023-05-16T02:42:24;100142.94;;;10.90;98.90
32733;BME280;11867;51.198;11.966;2023-05-16T02:43:27;100156.31;;;10.87;98.32
32733;BME280;11867;51.198;11.966;2023-05-16T02:44:31;100151.28;;;10.99;97.92
32733;BME280;11867;51.198;11.966;2023-05-16T02:45:32;100154.06;;;11.23;96.83
32733;BME280;11867;51.198;11.966;2023-05-16T02:46:35;100153.25;;;11.23;95.93
32733;BME280;11867;51.198;11.966;2023-05-16T02:47:37;100150.09;;;11.10;96.02
32733;BME280;11867;51.198;11.966;2023-05-16T02:48:39;100154.72;;;11.39;95.18
32733;BME280;11867;51.198;11.966;2023-05-16T02:49:41;100150.69;;;11.31;94.33
32733;BME280;11867;51.198;11.966;2023-05-16T02:50:43;100157.59;;;11.24;95.19
32733;BME280;11867;51.198;11.966;2023-05-16T02:51:45;100158.84;;;11.07;96.03
32733;BME280;11867;51.198;11.966;2023-05-16T02:52:48;100159.03;;;10.92;97.15
32733;BME280;11867;51.198;11.966;2023-05-16T02:53:50;100157.06;;;10.98;97.17
32733;BME280;11867;51.198;11.966;2023-05-16T02:54:52;100165.03;;;10.89;98.16
32733;BME280;11867;51.198;11.966;2023-05-16T02:55:57;100164.72;;;11.20;97.51
32733;BME280;11867;51.198;11.966;2023-05-16T02:56:59;100160.75;;;11.36;96.08
32733;BME280;11867;51.198;11.966;2023-05-16T02:58:01;100160.88;;;11.50;95.45
32733;BME280;11867;51.198;11.966;2023-05-16T02:59:04;100165.09;;;11.61;94.58
32733;BME280;11867;51.198;11.966;2023-05-16T03:00:09;100168.34;;;11.39;94.98
32733;BME280;11867;51.198;11.966;2023-05-16T03:01:12;100168.81;;;11.46;94.96
32733;BME280;11867;51.198;11.966;2023-05-16T03:02:13;100162.59;;;11.65;94.12
32733;BME280;11867;51.198;11.966;2023-05-16T03:03:16;100164.09;;;11.76;93.46
32733;BME280;11867;51.198;11.966;2023-05-16T03:04:18;100162.31;;;11.66;93.70
32733;BME280;11867;51.198;11.966;2023-05-16T03:05:20;100163.72;;;11.64;93.97
32733;BME280;11867;51.198;11.966;2023-05-16T03:06:22;100168.22;;;11.74;93.86
32733;BME280;11867;51.198;11.966;2023-05-16T03:07:24;100163.78;;;11.78;93.38
32733;BME280;11867;51.198;11.966;2023-05-16T03:08:26;100172.22;;;11.81;92.96
32733;BME280;11867;51.198;11.966;2023-05-16T03:09:28;100171.25;;;11.72;92.85
32733;BME280;11867;51.198;11.966;2023-05-16T03:10:30;100174.47;;;11.31;96.07
32733;BME280;11867;51.198;11.966;2023-05-16T03:11:32;100177.28;;;11.45;95.86
32733;BME280;11867;51.198;11.966;2023-05-16T03:12:33;100182.34;;;11.03;97.91
32733;BME280;11867;51.198;11.966;2023-05-16T03:13:39;100180.25;;;10.95;99.07
32733;BME280;11867;51.198;11.966;2023-05-16T03:14:40;100180.69;;;11.07;98.51
32733;BME280;11867;51.198;11.966;2023-05-16T03:15:44;100178.56;;;11.28;97.20
32733;BME280;11867;51.198;11.966;2023-05-16T03:16:46;100186.59;;;11.44;95.62
32733;BME280;11867;51.198;11.966;2023-05-16T03:17:49;100185.56;;;11.64;94.47
32733;BME280;11867;51.198;11.966;2023-05-16T03:18:50;100182.31;;;11.62;94.15
32733;BME280;11867;51.198;11.966;2023-05-16T03:19:53;100182.00;;;11.39;94.40
32733;BME280;11867;51.198;11.966;2023-05-16T03:20:54;100175.31;;;11.26;95.25
32733;BME280;11867;51.198;11.966;2023-05-16T03:21:57;100170.63;;;11.56;94.78
32733;BME280;11867;51.198;11.966;2023-05-16T03:22:59;100176.53;;;11.63;93.85
32733;BME280;11867;51.198;11.966;2023-05-16T03:24:01;100178.19;;;11.83;92.91
32733;BME280;11867;51.198;11.966;2023-05-16T03:25:04;100175.06;;;11.71;92.70
32733;BME280;11867;51.198;11.966;2023-05-16T03:26:08;100175.03;;;11.52;93.49
32733;BME280;11867;51.198;11.966;2023-05-16T03:27:09;100183.88;;;11.68;92.06
32733;BME280;11867;51.198;11.966;2023-05-16T03:28:12;100183.38;;;11.37;92.82
32733;BME280;11867;51.198;11.966;2023-05-16T03:29:15;100192.09;;;11.15;94.48
32733;BME280;11867;51.198;11.966;2023-05-16T03:30:18;100188.56;;;11.38;94.16
32733;BME280;11867;51.198;11.966;2023-05-16T03:31:21;100188.03;;;11.36;93.48
32733;BME280;11867;51.198;11.966;2023-05-16T03:32:24;100196.34;;;10.97;95.03
32733;BME280;11867;51.198;11.966;2023-05-16T03:33:25;100204.91;;;10.45;98.90
32733;BME280;11867;51.198;11.966;2023-05-16T03:34:28;100199.50;;;10.40;100.00
32733;BME280;11867;51.198;11.966;2023-05-16T03:35:30;100200.31;;;10.41;100.00
32733;BME280;11867;51.198;11.966;2023-05-16T03:36:33;100199.19;;;10.47;100.00
32733;BME280;11867;51.198;11.966;2023-05-16T03:37:36;100204.38;;;10.83;99.12
32733;BME280;11867;51.198;11.966;2023-05-16T03:38:37;100196.09;;;10.93;97.54
32733;BME280;11867;51.198;11.966;2023-05-16T03:39:40;100194.91;;;11.04;97.00
32733;BME280;11867;51.198;11.966;2023-05-16T03:40:41;100196.34;;;10.97;97.62
32733;BME280;11867;51.198;11.966;2023-05-16T03:41:44;100199.59;;;11.28;96.18
32733;BME280;11867;51.198;11.966;2023-05-16T03:42:45;100196.63;;;11.48;94.69
32733;BME280;11867;51.198;11.966;2023-05-16T03:43:48;100201.09;;;11.63;93.29
32733;BME280;11867;51.198;11.966;2023-05-16T03:44:50;100199.53;;;11.81;92.25
32733;BME280;11867;51.198;11.966;2023-05-16T03:45:52;100206.03;;;11.85;91.41
32733;BME280;11867;51.198;11.966;2023-05-16T03:46:55;100207.44;;;11.83;91.50
32733;BME280;11867;51.198;11.966;2023-05-16T03:47:58;100210.00;;;11.74;91.55
32733;BME280;11867;51.198;11.966;2023-05-16T03:49:00;100209.94;;;11.79;91.32
32733;BME280;11867;51.198;11.966;2023-05-16T03:50:04;100209.56;;;11.91;91.11
32733;BME280;11867;51.198;11.966;2023-05-16T03:51:06;100215.03;;;11.86;91.29
32733;BME280;11867;51.198;11.966;2023-05-16T03:52:08;100208.47;;;11.87;90.79
32733;BME280;11867;51.198;11.966;2023-05-16T03:53:10;100221.16;;;11.78;91.21
32733;BME280;11867;51.198;11.966;2023-05-16T03:54:12;100226.91;;;11.76;91.42
32733;BME280;11867;51.198;11.966;2023-05-16T03:55:15;100215.63;;;11.83;91.20
32733;BME280;11867;51.198;11.966;2023-05-16T03:56:17;100216.69;;;11.87;90.95
32733;BME280;11867;51.198;11.966;2023-05-16T03:57:19;100228.38;;;11.93;90.19
32733;BME280;11867;51.198;11.966;2023-05-16T03:58:21;100224.41;;;12.04;89.95
32733;BME280;11867;51.198;11.966;2023-05-16T03:59:23;100221.69;;;12.04;90.06
32733;BME280;11867;51.198;11.966;2023-05-16T04:00:26;100229.19;;;11.93;89.93
32733;BME280;11867;51.198;11.966;2023-05-16T04:01:28;100225.22;;;12.04;89.66
32733;BME280;11867;51.198;11.966;2023-05-16T04:02:31;100237.09;;;11.95;89.90
32733;BME280;11867;51.198;11.966;2023-05-16T04:03:33;100230.53;;;11.96;90.04
32733;BME280;11867;51.198;11.966;2023-05-16T04:04:36;100227.00;;;11.95;90.07
32733;BME280;11867;51.198;11.966;2023-05-16T04:05:37;100234.69;;;11.88;90.37
32733;BME280;11867;51.198;11.966;2023-05-16T04:06:40;100236.66;;;11.82;90.50
32733;BME280;11867;51.198;11.966;2023-05-16T04:07:42;100234.34;;;11.95;90.21
32733;BME280;11867;51.198;11.966;2023-05-16T04:08:44;100226.22;;;11.89;90.03
32733;BME280;11867;51.198;11.966;2023-05-16T04:09:46;100239.81;;;11.95;89.88
32733;BME280;11867;51.198;11.966;2023-05-16T04:10:48;100238.66;;;12.01;89.75
32733;BME280;11867;51.198;11.966;2023-05-16T04:11:50;100243.19;;;12.10;89.28
32733;BME280;11867;51.198;11.966;2023-05-16T04:12:52;100248.72;;;12.05;89.12
32733;BME280;11867;51.198;11.966;2023-05-16T04:13:54;100246.19;;;12.09;89.44
32733;BME280;11867;51.198;11.966;2023-05-16T04:14:56;100254.19;;;12.05;88.77
32733;BME280;11867;51.198;11.966;2023-05-16T04:15:59;100261.63;;;12.00;89.06
32733;BME280;11867;51.198;11.966;2023-05-16T04:17:00;100254.59;;;11.94;88.60
32733;BME280;11867;51.198;11.966;2023-05-16T04:18:04;100258.22;;;11.89;89.19
32733;BME280;11867;51.198;11.966;2023-05-16T04:19:06;100259.03;;;11.89;88.96
32733;BME280;11867;51.198;11.966;2023-05-16T04:20:09;100262.50;;;11.95;88.35
32733;BME280;11867;51.198;11.966;2023-05-16T04:21:11;100259.47;;;11.97;88.39
32733;BME280;11867;51.198;11.966;2023-05-16T04:22:15;100269.69;;;12.10;87.63
32733;BME280;11867;51.198;11.966;2023-05-16T04:23:17;100272.34;;;12.15;87.58
32733;BME280;11867;51.198;11.966;2023-05-16T04:24:19;100269.72;;;12.29;87.11
32733;BME280;11867;51.198;11.966;2023-05-16T04:25:21;100275.19;;;12.29;87.29
32733;BME280;11867;51.198;11.966;2023-05-16T04:26:23;100273.59;;;12.47;86.73
32733;BME280;11867;51.198;11.966;2023-05-16T04:27:25;100278.97;;;12.52;86.30
32733;BME280;11867;51.198;11.966;2023-05-16T04:28:28;100277.03;;;12.52;86.14
32733;BME280;11867;51.198;11.966;2023-05-16T04:29:30;100287.25;;;12.47;86.33
32733;BME280;11867;51.198;11.966;2023-05-16T04:30:33;100286.22;;;12.43;86.00
32733;BME280;11867;51.198;11.966;2023-05-16T04:31:34;100286.22;;;12.62;85.65
32733;BME280;11867;51.198;11.966;2023-05-16T04:32:37;100285.94;;;12.63;85.56
32733;BME280;11867;51.198;11.966;2023-05-16T04:33:40;100278.09;;;12.57;85.89
32733;BME280;11867;51.198;11.966;2023-05-16T04:34:43;100284.38;;;12.57;86.02
32733;BME280;11867;51.198;11.966;2023-05-16T04:35:46;100278.81;;;12.62;85.38
32733;BME280;11867;51.198;11.966;2023-05-16T04:36:50;100286.59;;;12.74;84.50
32733;BME280;11867;51.198;11.966;2023-05-16T04:37:51;100282.28;;;12.87;84.17
32733;BME280;11867;51.198;11.966;2023-05-16T04:38:54;100289.31;;;12.93;84.11
32733;BME280;11867;51.198;11.966;2023-05-16T04:39:55;100298.03;;;12.95;83.62
32733;BME280;11867;51.198;11.966;2023-05-16T04:40:59;100292.84;;;12.93;83.79
32733;BME280;11867;51.198;11.966;2023-05-16T04:42:02;100301.44;;;12.87;83.24
32733;BME280;11867;51.198;11.966;2023-05-16T04:43:04;100297.09;;;12.86;82.73
32733;BME280;11867;51.198;11.966;2023-05-16T04:44:07;100300.88;;;12.90;82.88
32733;BME280;11867;51.198;11.966;2023-05-16T04:45:09;100298.69;;;13.06;82.42
32733;BME280;11867;51.198;11.966;2023-05-16T04:46:14;100300.22;;;13.12;82.36
32733;BME280;11867;51.198;11.966;2023-05-16T04:47:17;100306.03;;;13.10;82.63
32733;BME280;11867;51.198;11.966;2023-05-16T04:48:19;100303.66;;;13.04;82.64
32733;BME280;11867;51.198;11.966;2023-05-16T04:49:23;100304.47;;;13.04;82.02
32733;BME280;11867;51.198;11.966;2023-05-16T04:50:24;100305.88;;;13.02;82.40
32733;BME280;11867;51.198;11.966;2023-05-16T04:51:27;100315.03;;;13.11;82.37
32733;BME280;11867;51.198;11.966;2023-05-16T04:52:28;100305.66;;;12.98;83.16
32733;BME280;11867;51.198;11.966;2023-05-16T04:53:31;100310.41;;;12.74;83.21
32733;BME280;11867;51.198;11.966;2023-05-16T04:54:32;100316.84;;;12.64;83.91
32733;BME280;11867;51.198;11.966;2023-05-16T04:55:35;100326.44;;;12.42;85.06
32733;BME280;11867;51.198;11.966;2023-05-16T04:56:37;100322.69;;;12.57;85.12
32733;BME280;11867;51.198;11.966;2023-05-16T04:57:39;100322.97;;;12.56;84.97
32733;BME280;11867;51.198;11.966;2023-05-16T04:58:41;100323.47;;;12.58;84.93
32733;BME280;11867;51.198;11.966;2023-05-16T04:59:43;100326.50;;;12.56;84.83
32733;BME280;11867;51.198;11.966;2023-05-16T05:00:45;100321.84;;;12.57;84.49
32733;BME280;11867;51.198;11.966;2023-05-16T05:01:47;100325.41;;;12.57;84.54
32733;BME280;11867;51.198;11.966;2023-05-16T05:02:49;100331.31;;;12.64;84.30
32733;BME280;11867;51.198;11.966;2023-05-16T05:03:52;100327.50;;;12.84;83.73
32733;BME280;11867;51.198;11.966;2023-05-16T05:04:54;100324.53;;;12.81;83.51
32733;BME280;11867;51.198;11.966;2023-05-16T05:05:57;100336.44;;;12.90;83.73
32733;BME280;11867;51.198;11.966;2023-05-16T05:06:58;100332.19;;;12.98;83.95
32733;BME280;11867;51.198;11.966;2023-05-16T05:08:01;100335.09;;;13.06;83.57
32733;BME280;11867;51.198;11.966;2023-05-16T05:09:02;100340.06;;;13.04;83.79
32733;BME280;11867;51.198;11.966;2023-05-16T05:10:06;100333.47;;;13.05;83.95
32733;BME280;11867;51.198;11.966;2023-05-16T05:11:08;100329.41;;;13.03;83.17
32733;BME280;11867;51.198;11.966;2023-05-16T05:12:11;100341.69;;;12.67;84.64
32733;BME280;11867;51.198;11.966;2023-05-16T05:13:14;100342.25;;;12.45;85.02
32733;BME280;11867;51.198;11.966;2023-05-16T05:14:15;100338.91;;;12.48;85.02
32733;BME280;11867;51.198;11.966;2023-05-16T05:15:18;100345.72;;;12.51;85.00
32733;BME280;11867;51.198;11.966;2023-05-16T05:16:20;100340.03;;;12.47;84.95
32733;BME280;11867;51.198;11.966;2023-05-16T05:17:22;100346.38;;;12.43;85.21
32733;BME280;11867;51.198;11.966;2023-05-16T05:18:24;100346.28;;;12.29;84.44
32733;BME280;11867;51.198;11.966;2023-05-16T05:19:26;100346.28;;;12.29;84.29
32733;BME280;11867;51.198;11.966;2023-05-16T05:20:29;100348.19;;;12.28;84.22
32733;BME280;11867;51.198;11.966;2023-05-16T05:21:32;100350.16;;;12.23;84.29
32733;BME280;11867;51.198;11.966;2023-05-16T05:22:33;100346.34;;;12.24;84.61
32733;BME280;11867;51.198;11.966;2023-05-16T05:23:36;100350.97;;;12.23;84.84
32733;BME280;11867;51.198;11.966;2023-05-16T05:24:37;100349.28;;;12.27;84.13